Rose Blanche, Canada
Current Conditions -  °F | °C
As of 7:00 AM on Friday 19 Dec 2014 (Local Time) from CWZB Reporting Station
Light Rain Light Rain  
Wind Chill: 29°   Ceiling: 2000
Heat Index: 37°   Visibility: 6mi
Dew Point: 36°   Wind: 14mph
Humidity: 95%   Direction: 280°W
Pressure: 29.38"   Gusts: NA
Location:  47.62°N, 58.7°W
Report Text: CWZB 191000Z AUTO 28012KT 6SM -RA BKN020 BKN028 03/02 A2938 RMK SLP948 T00290022 P0004 70106 WSI/SWOB
Loading
Personal Weather Stations






























Interactive Weather Map New forecast layout! Learn more

10-Day Weather Forecast

Advertisements
Track Severe Weather on mobile